Time;durP1;ratioP1;P1;durP2;ratioP2;P2;SDS_P1;SDS_P2;PMS_P1;PMS_P2;Temp;Humidity;BMP_temperature;BMP_pressure;BME280_temperature;BME280_humidity;BME280_pressure;Samples;Min_cycle;Max_cycle;Signal;HPM_P1;HPM_P2
2022/03/04 00:00:09;;;;;;;25.02;2.30;;;;;;;;;;5019530;28;20026;-28
2022/03/04 00:02:37;;;;;;;16.52;2.47;;;;;;;;;;5019913;28;20022;-28
2022/03/04 00:05:04;;;;;;;30.02;2.92;;;;;;;;;;5019093;28;20108;-28
2022/03/04 00:07:31;;;;;;;26.25;2.92;;;;;;;;;;5020174;28;20022;-28
2022/03/04 00:09:58;;;;;;;22.35;2.22;;;;;;;;;;5023791;28;20065;-28
2022/03/04 00:12:25;;;;;;;25.05;2.67;;;;;;;;;;5021763;28;20109;-29
2022/03/04 00:14:52;;;;;;;28.17;3.08;;;;;;;;;;5017512;28;20028;-29
2022/03/04 00:17:19;;;;;;;21.50;2.63;;;;;;;;;;5030360;28;20021;-29
2022/03/04 00:19:46;;;;;;;24.80;2.95;;;;;;;;;;5029017;28;20024;-28
2022/03/04 00:22:14;;;;;;;28.65;2.60;;;;;;;;;;5026358;28;20041;-29
2022/03/04 00:24:42;;;;;;;30.08;2.75;;;;;;;;;;5021977;28;20033;-28
2022/03/04 00:27:08;;;;;;;19.90;2.17;;;;;;;;;;5013812;28;20392;-28
2022/03/04 00:29:35;;;;;;;25.60;2.60;;;;;;;;;;5015282;28;20125;-28
2022/03/04 00:32:03;;;;;;;24.77;2.20;;;;;;;;;;5019608;28;20050;-28
2022/03/04 00:34:30;;;;;;;25.13;2.58;;;;;;;;;;5029885;28;20060;-28
2022/03/04 00:36:57;;;;;;;27.30;2.70;;;;;;;;;;5031363;28;20025;-28
2022/03/04 00:39:24;;;;;;;23.08;2.28;;;;;;;;;;5034486;28;20038;-28
2022/03/04 00:41:51;;;;;;;22.13;2.60;;;;;;;;;;5033588;28;20549;-28
2022/03/04 00:44:18;;;;;;;21.10;2.80;;;;;;;;;;5028627;28;20052;-28
2022/03/04 00:46:45;;;;;;;24.02;2.20;;;;;;;;;;5027930;28;20365;-28
2022/03/04 00:49:12;;;;;;;29.45;2.47;;;;;;;;;;5022653;28;20404;-28
2022/03/04 00:51:39;;;;;;;24.33;2.35;;;;;;;;;;5023558;28;20025;-28
2022/03/04 00:54:06;;;;;;;19.38;2.45;;;;;;;;;;5028241;28;20029;-28
2022/03/04 00:56:34;;;;;;;15.68;2.15;;;;;;;;;;5027107;28;20054;-28
2022/03/04 00:59:01;;;;;;;17.92;2.30;;;;;;;;;;5025754;28;20076;-28
2022/03/04 01:01:28;;;;;;;18.30;1.90;;;;;;;;;;5022762;28;20018;-29
2022/03/04 01:03:55;;;;;;;28.40;2.63;;;;;;;;;;5020639;28;20060;-29
2022/03/04 01:06:22;;;;;;;28.50;3.75;;;;;;;;;;5022647;28;20030;-29
2022/03/04 01:08:49;;;;;;;30.88;9.95;;;;;;;;;;5021032;28;20503;-28
2022/03/04 01:11:16;;;;;;;34.50;6.72;;;;;;;;;;5024100;28;20043;-28
2022/03/04 01:13:43;;;;;;;15.20;2.03;;;;;;;;;;5021107;28;20412;-28
2022/03/04 01:16:11;;;;;;;28.50;2.15;;;;;;;;;;5024068;28;20042;-29
2022/03/04 01:18:38;;;;;;;18.85;1.95;;;;;;;;;;5021592;28;20041;-30
2022/03/04 01:21:06;;;;;;;3.40;0.90;;;;;;;;;;5019811;28;20041;-29
2022/03/04 01:23:34;;;;;;;4.55;1.20;;;;;;;;;;5020372;28;20029;-29
2022/03/04 01:26:02;;;;;;;7.70;1.30;;;;;;;;;;5021759;28;20069;-29
2022/03/04 01:28:29;;;;;;;4.65;1.38;;;;;;;;;;5022690;28;20029;-29
2022/03/04 01:30:56;;;;;;;17.48;1.35;;;;;;;;;;5021989;28;20021;-29
2022/03/04 01:33:26;;;;;;;3.85;0.90;;;;;;;;;;5019674;28;20050;-29
2022/03/04 01:35:56;;;;;;;4.50;1.00;;;;;;;;;;5020768;28;20046;-30
2022/03/04 01:38:26;;;;;;;5.35;0.95;;;;;;;;;;5021974;28;20047;-28
2022/03/04 01:40:54;;;;;;;6.45;1.10;;;;;;;;;;5023359;28;20387;-30
2022/03/04 01:43:24;;;;;;;4.90;0.82;;;;;;;;;;5021696;28;20064;-29
2022/03/04 01:45:51;;;;;;;4.90;0.82;;;;;;;;;;5019014;28;20061;-29
2022/03/04 01:48:20;;;;;;;5.18;1.33;;;;;;;;;;5020168;28;20503;-29
2022/03/04 01:50:51;;;;;;;3.17;1.45;;;;;;;;;;5017546;28;20058;-29
2022/03/04 01:53:30;;;;;;;8.77;1.60;;;;;;;;;;5016706;28;20033;-30
2022/03/04 01:56:01;;;;;;;5.97;1.13;;;;;;;;;;5035390;28;20492;-30
2022/03/04 01:58:31;;;;;;;3.65;1.02;;;;;;;;;;5024431;28;20380;-30
2022/03/04 02:00:59;;;;;;;7.60;1.00;;;;;;;;;;5025681;28;20471;-29
2022/03/04 02:03:28;;;;;;;3.42;1.08;;;;;;;;;;5022990;28;20038;-31
2022/03/04 02:05:55;;;;;;;4.38;1.00;;;;;;;;;;5023036;28;20048;-31
2022/03/04 02:08:22;;;;;;;8.52;1.38;;;;;;;;;;5016687;28;20029;-29
2022/03/04 02:10:50;;;;;;;3.17;0.80;;;;;;;;;;5019051;28;20026;-30
2022/03/04 02:13:17;;;;;;;7.85;1.35;;;;;;;;;;5022743;28;20428;-30
2022/03/04 02:15:51;;;;;;;5.47;0.90;;;;;;;;;;5018523;28;20040;-31
2022/03/04 02:18:19;;;;;;;5.47;0.85;;;;;;;;;;5024142;28;20045;-31
2022/03/04 02:20:48;;;;;;;4.80;1.10;;;;;;;;;;5024582;28;20519;-30
2022/03/04 02:23:16;;;;;;;5.50;0.85;;;;;;;;;;5021504;28;20423;-29
2022/03/04 02:25:50;;;;;;;3.03;0.80;;;;;;;;;;5026799;28;20072;-30
2022/03/04 02:28:17;;;;;;;7.13;1.20;;;;;;;;;;5019325;28;20045;-29
2022/03/04 02:30:44;;;;;;;5.88;0.80;;;;;;;;;;5022436;28;20392;-29
2022/03/04 02:33:12;;;;;;;3.95;1.02;;;;;;;;;;5012740;28;20459;-28
2022/03/04 02:35:41;;;;;;;6.22;1.50;;;;;;;;;;5011849;28;20033;-29
2022/03/04 02:38:08;;;;;;;6.20;1.45;;;;;;;;;;5013508;28;20424;-28
2022/03/04 02:40:35;;;;;;;4.60;1.33;;;;;;;;;;5013344;28;20036;-28
2022/03/04 02:43:02;;;;;;;7.97;1.00;;;;;;;;;;5013316;28;20426;-28
2022/03/04 02:45:29;;;;;;;3.53;0.90;;;;;;;;;;5013196;28;20509;-28
2022/03/04 02:47:56;;;;;;;4.90;0.80;;;;;;;;;;5013460;28;20029;-28
2022/03/04 02:50:23;;;;;;;3.28;0.60;;;;;;;;;;5020394;28;20373;-28
2022/03/04 02:52:50;;;;;;;3.88;0.80;;;;;;;;;;5013126;28;20508;-28
2022/03/04 02:55:17;;;;;;;3.13;0.60;;;;;;;;;;5013179;28;20081;-28
2022/03/04 02:57:46;;;;;;;2.55;0.50;;;;;;;;;;5013212;28;20037;-28
2022/03/04 03:00:14;;;;;;;1.60;0.60;;;;;;;;;;5013136;28;20037;-28
2022/03/04 03:02:42;;;;;;;1.17;0.35;;;;;;;;;;5013243;28;20387;-28
2022/03/04 03:05:09;;;;;;;1.95;0.40;;;;;;;;;;5013171;28;20083;-28
2022/03/04 03:07:36;;;;;;;2.10;0.75;;;;;;;;;;5013175;28;20022;-28
2022/03/04 03:10:04;;;;;;;2.03;0.60;;;;;;;;;;5012944;28;20041;-29
2022/03/04 03:12:32;;;;;;;1.25;0.50;;;;;;;;;;5011617;28;20057;-28
2022/03/04 03:14:59;;;;;;;3.47;0.50;;;;;;;;;;5012969;28;20164;-28
2022/03/04 03:17:26;;;;;;;2.15;0.60;;;;;;;;;;5013062;28;20507;-28
2022/03/04 03:19:53;;;;;;;1.35;0.43;;;;;;;;;;5012841;28;20114;-28
2022/03/04 03:22:20;;;;;;;1.30;0.47;;;;;;;;;;5012871;28;20032;-28
2022/03/04 03:24:47;;;;;;;2.65;0.50;;;;;;;;;;5012943;28;20057;-28
2022/03/04 03:27:14;;;;;;;1.52;0.40;;;;;;;;;;5012829;28;20026;-28
2022/03/04 03:29:42;;;;;;;1.15;0.60;;;;;;;;;;5012609;28;20037;-28
2022/03/04 03:32:10;;;;;;;0.73;0.30;;;;;;;;;;5012546;28;20050;-29
2022/03/04 03:34:37;;;;;;;1.33;0.57;;;;;;;;;;5012489;28;20041;-28
2022/03/04 03:37:04;;;;;;;2.33;0.50;;;;;;;;;;5012548;28;20042;-28
2022/03/04 03:39:31;;;;;;;2.58;0.50;;;;;;;;;;5012574;28;20061;-28
2022/03/04 03:41:59;;;;;;;2.25;0.50;;;;;;;;;;5012557;28;20048;-28
2022/03/04 03:44:26;;;;;;;2.42;0.68;;;;;;;;;;5012465;28;20481;-28
2022/03/04 03:46:53;;;;;;;1.58;0.50;;;;;;;;;;5012426;28;20462;-28
2022/03/04 03:49:20;;;;;;;0.73;0.38;;;;;;;;;;5012486;28;20034;-28
2022/03/04 03:51:47;;;;;;;0.57;0.35;;;;;;;;;;5012486;28;20037;-28
2022/03/04 03:54:14;;;;;;;1.27;0.47;;;;;;;;;;5012456;28;20148;-28
2022/03/04 03:56:41;;;;;;;1.25;0.47;;;;;;;;;;5015640;28;20042;-28
2022/03/04 03:59:08;;;;;;;1.48;0.35;;;;;;;;;;5016364;28;20042;-28
2022/03/04 04:01:35;;;;;;;2.50;0.32;;;;;;;;;;5016523;28;20124;-28
2022/03/04 04:04:02;;;;;;;0.65;0.28;;;;;;;;;;5016420;28;20069;-28
2022/03/04 04:06:29;;;;;;;2.50;0.35;;;;;;;;;;5016497;28;20030;-28
2022/03/04 04:08:56;;;;;;;0.60;0.50;;;;;;;;;;5016385;28;20034;-29
2022/03/04 04:11:23;;;;;;;1.25;0.80;;;;;;;;;;5016094;28;20037;-28
2022/03/04 04:13:50;;;;;;;0.43;0.40;;;;;;;;;;5016238;28;20037;-28
2022/03/04 04:16:17;;;;;;;0.98;0.65;;;;;;;;;;5016041;28;20143;-28
2022/03/04 04:18:44;;;;;;;2.63;0.68;;;;;;;;;;5016148;28;20033;-28
2022/03/04 04:21:11;;;;;;;1.15;0.65;;;;;;;;;;5016065;28;20488;-28
2022/03/04 04:23:38;;;;;;;1.23;0.63;;;;;;;;;;5015955;28;20492;-28
2022/03/04 04:26:06;;;;;;;2.28;0.70;;;;;;;;;;5015973;28;20030;-28
2022/03/04 04:28:34;;;;;;;2.38;0.65;;;;;;;;;;5015913;28;20034;-28
2022/03/04 04:31:01;;;;;;;0.95;0.50;;;;;;;;;;5015946;28;20104;-29
2022/03/04 04:33:28;;;;;;;2.25;0.88;;;;;;;;;;5015667;28;20405;-29
2022/03/04 04:35:55;;;;;;;1.83;0.60;;;;;;;;;;5015709;28;20511;-29
2022/03/04 04:38:22;;;;;;;2.28;0.50;;;;;;;;;;5015886;28;20037;-29
2022/03/04 04:40:49;;;;;;;2.88;0.80;;;;;;;;;;5015716;28;20033;-29
2022/03/04 04:43:16;;;;;;;3.03;1.00;;;;;;;;;;5015642;28;20079;-29
2022/03/04 04:45:43;;;;;;;3.20;1.20;;;;;;;;;;5015669;28;20036;-29
2022/03/04 04:48:10;;;;;;;3.47;1.10;;;;;;;;;;5015650;28;20100;-29
2022/03/04 04:50:37;;;;;;;2.25;1.20;;;;;;;;;;5015477;28;20036;-29
2022/03/04 04:53:04;;;;;;;2.53;1.02;;;;;;;;;;5015600;28;20109;-29
2022/03/04 04:55:31;;;;;;;4.57;1.27;;;;;;;;;;5015293;28;20034;-29
2022/03/04 04:57:58;;;;;;;1.63;0.80;;;;;;;;;;5015411;28;20110;-29
2022/03/04 05:00:25;;;;;;;3.08;0.93;;;;;;;;;;5015324;28;20025;-29
2022/03/04 05:02:52;;;;;;;1.80;0.80;;;;;;;;;;5015404;28;20109;-29
2022/03/04 05:05:20;;;;;;;1.58;0.95;;;;;;;;;;5015332;28;20037;-29
2022/03/04 05:07:47;;;;;;;3.22;1.00;;;;;;;;;;5013978;28;20515;-29
2022/03/04 05:10:14;;;;;;;2.72;1.10;;;;;;;;;;5015036;28;20041;-29
2022/03/04 05:12:41;;;;;;;3.88;1.00;;;;;;;;;;5015245;28;20119;-29
2022/03/04 05:15:08;;;;;;;2.33;0.90;;;;;;;;;;5014967;28;20065;-29
2022/03/04 05:17:35;;;;;;;1.65;1.10;;;;;;;;;;5015108;28;20034;-29
2022/03/04 05:20:02;;;;;;;4.00;1.13;;;;;;;;;;5015019;28;20101;-29
2022/03/04 05:22:29;;;;;;;2.63;1.15;;;;;;;;;;5014954;28;20033;-29
2022/03/04 05:24:56;;;;;;;2.05;1.20;;;;;;;;;;5014902;28;20037;-29
2022/03/04 05:27:23;;;;;;;1.40;1.10;;;;;;;;;;5014793;28;20034;-29
2022/03/04 05:29:50;;;;;;;2.03;0.98;;;;;;;;;;5014708;28;20105;-29
2022/03/04 05:32:17;;;;;;;4.90;1.10;;;;;;;;;;5014641;28;20124;-29
2022/03/04 05:34:44;;;;;;;2.90;0.70;;;;;;;;;;5014766;28;20029;-29
2022/03/04 05:37:11;;;;;;;3.53;1.02;;;;;;;;;;5014622;28;20424;-29
2022/03/04 05:39:38;;;;;;;3.55;1.00;;;;;;;;;;5014572;28;20030;-29
2022/03/04 05:42:05;;;;;;;2.80;0.80;;;;;;;;;;5014553;28;20481;-29
2022/03/04 05:44:32;;;;;;;2.25;0.95;;;;;;;;;;5014653;28;20034;-29
2022/03/04 05:46:59;;;;;;;2.10;0.90;;;;;;;;;;5014533;28;20084;-29
2022/03/04 05:49:26;;;;;;;2.97;0.98;;;;;;;;;;5014318;28;20044;-29
2022/03/04 05:51:53;;;;;;;3.45;1.08;;;;;;;;;;5013121;28;20038;-29
2022/03/04 05:54:20;;;;;;;1.77;1.10;;;;;;;;;;5014431;28;20038;-29
2022/03/04 05:56:47;;;;;;;1.48;0.90;;;;;;;;;;5014265;28;20034;-29
2022/03/04 05:59:14;;;;;;;4.05;1.20;;;;;;;;;;5014202;28;20026;-29
2022/03/04 06:01:41;;;;;;;3.45;1.30;;;;;;;;;;5014350;28;20037;-29
2022/03/04 06:04:08;;;;;;;2.90;1.25;;;;;;;;;;5014206;28;20064;-29
2022/03/04 06:06:35;;;;;;;3.42;1.30;;;;;;;;;;5014185;28;20026;-29
2022/03/04 06:09:02;;;;;;;6.63;2.13;;;;;;;;;;5014089;28;20489;-29
2022/03/04 06:11:29;;;;;;;3.72;1.70;;;;;;;;;;5013939;28;20037;-29
2022/03/04 06:13:56;;;;;;;4.25;1.70;;;;;;;;;;5012669;28;20038;-29
2022/03/04 06:16:23;;;;;;;4.75;1.48;;;;;;;;;;5013898;28;20116;-29
2022/03/04 06:18:51;;;;;;;3.00;1.77;;;;;;;;;;5013475;28;20026;-29
2022/03/04 06:21:18;;;;;;;2.13;1.10;;;;;;;;;;5014101;28;20488;-29
2022/03/04 06:23:45;;;;;;;3.30;1.45;;;;;;;;;;5013862;28;20052;-29
2022/03/04 06:26:13;;;;;;;1.67;1.20;;;;;;;;;;5013699;28;20393;-29
2022/03/04 06:28:40;;;;;;;3.45;1.30;;;;;;;;;;5013681;28;20038;-29
2022/03/04 06:31:11;;;;;;;2.30;1.20;;;;;;;;;;5155392;23;20049;31
2022/03/04 06:33:39;;;;;;;2.65;0.95;;;;;;;;;;4921789;28;20036;-31
2022/03/04 06:36:08;;;;;;;2.85;0.95;;;;;;;;;;4917159;29;20028;-32
2022/03/04 06:38:35;;;;;;;2.95;0.80;;;;;;;;;;4917247;29;20475;-32
2022/03/04 06:41:03;;;;;;;2.35;0.90;;;;;;;;;;4931710;29;20080;-32
2022/03/04 06:43:30;;;;;;;1.65;0.90;;;;;;;;;;4917078;29;20482;-32
2022/03/04 06:45:57;;;;;;;4.68;1.00;;;;;;;;;;4917123;29;20501;-32
2022/03/04 06:48:25;;;;;;;2.65;0.70;;;;;;;;;;4917048;29;20066;-32
2022/03/04 06:50:53;;;;;;;0.68;0.50;;;;;;;;;;4916965;29;20047;-32
2022/03/04 06:53:20;;;;;;;2.85;0.60;;;;;;;;;;4916798;29;20561;-32
2022/03/04 06:55:47;;;;;;;3.30;0.80;;;;;;;;;;4916823;29;20433;-32
2022/03/04 06:58:14;;;;;;;0.70;0.60;;;;;;;;;;4916854;29;20032;-32
2022/03/04 07:00:42;;;;;;;2.22;0.60;;;;;;;;;;4916842;29;20028;-32
2022/03/04 07:03:09;;;;;;;1.65;0.70;;;;;;;;;;4916682;29;20032;-32
2022/03/04 07:05:37;;;;;;;1.73;0.70;;;;;;;;;;4916814;29;20110;-32
2022/03/04 07:08:06;;;;;;;3.55;0.70;;;;;;;;;;4916585;29;20530;-32
2022/03/04 07:10:34;;;;;;;4.15;0.77;;;;;;;;;;4916630;29;20447;-32
2022/03/04 07:13:01;;;;;;;2.20;0.85;;;;;;;;;;4916528;29;20040;-32
2022/03/04 07:15:28;;;;;;;2.83;0.70;;;;;;;;;;4916500;29;20031;-32
2022/03/04 07:17:55;;;;;;;2.50;0.70;;;;;;;;;;4916886;29;20407;-32
2022/03/04 07:20:22;;;;;;;2.60;0.75;;;;;;;;;;4916490;29;20029;-32
2022/03/04 07:22:49;;;;;;;3.15;0.60;;;;;;;;;;4916332;29;20032;-32
2022/03/04 07:25:16;;;;;;;0.70;0.60;;;;;;;;;;4916452;29;20038;-31
2022/03/04 07:27:43;;;;;;;1.95;0.60;;;;;;;;;;4916440;29;20032;-32
2022/03/04 07:30:12;;;;;;;1.35;0.80;;;;;;;;;;4915687;29;20111;-32
2022/03/04 07:32:39;;;;;;;1.50;0.77;;;;;;;;;;4916087;29;20052;-32
2022/03/04 07:35:10;;;;;;;3.05;0.80;;;;;;;;;;4916245;29;20084;-32
2022/03/04 07:37:41;;;;;;;3.63;0.70;;;;;;;;;;4916228;29;20036;-32
2022/03/04 07:40:09;;;;;;;2.40;0.80;;;;;;;;;;4916327;29;20032;-32
2022/03/04 07:42:36;;;;;;;1.83;0.70;;;;;;;;;;4916118;29;20044;-33
2022/03/04 07:45:04;;;;;;;5.57;0.82;;;;;;;;;;4916241;29;20024;-33
2022/03/04 07:47:31;;;;;;;3.08;0.80;;;;;;;;;;4916195;29;20443;-33
2022/03/04 07:49:58;;;;;;;3.80;0.80;;;;;;;;;;4916187;29;20032;-32
2022/03/04 07:52:31;;;;;;;2.42;0.63;;;;;;;;;;4915975;29;20111;-32
2022/03/04 07:55:06;;;;;;;1.85;0.77;;;;;;;;;;4916119;29;20463;-32
2022/03/04 07:57:33;;;;;;;0.95;0.68;;;;;;;;;;4916134;29;20036;-31
2022/03/04 08:00:00;;;;;;;3.08;0.80;;;;;;;;;;4916080;29;20479;-31
2022/03/04 08:02:27;;;;;;;1.48;0.93;;;;;;;;;;4916085;29;20115;-31
2022/03/04 08:04:54;;;;;;;3.55;0.75;;;;;;;;;;4915912;29;20059;-32
2022/03/04 08:07:21;;;;;;;4.05;1.10;;;;;;;;;;4916005;29;20068;-32
2022/03/04 08:09:48;;;;;;;1.70;0.75;;;;;;;;;;4916012;29;20085;-32
2022/03/04 08:12:15;;;;;;;3.13;1.10;;;;;;;;;;4915923;29;20032;-32
2022/03/04 08:14:42;;;;;;;3.28;1.00;;;;;;;;;;4915948;29;20394;-32
2022/03/04 08:17:09;;;;;;;4.65;1.17;;;;;;;;;;4915805;29;20055;-32
2022/03/04 08:19:39;;;;;;;2.08;1.10;;;;;;;;;;4915869;29;20111;-32
2022/03/04 08:22:07;;;;;;;2.35;0.90;;;;;;;;;;4915853;29;20494;-32
2022/03/04 08:24:33;;;;;;;4.63;0.90;;;;;;;;;;4915903;29;20040;-32
2022/03/04 08:27:00;;;;;;;6.40;1.30;;;;;;;;;;4915902;29;20398;-32
2022/03/04 08:29:27;;;;;;;2.20;1.20;;;;;;;;;;4930387;29;20036;-32
2022/03/04 08:31:54;;;;;;;3.20;1.02;;;;;;;;;;4915544;29;20055;-32
2022/03/04 08:34:21;;;;;;;4.20;1.00;;;;;;;;;;4915775;29;20075;-32
2022/03/04 08:36:49;;;;;;;3.63;1.20;;;;;;;;;;4915642;29;20083;-32
2022/03/04 08:39:17;;;;;;;1.63;1.00;;;;;;;;;;4916089;29;20036;-31
2022/03/04 08:41:44;;;;;;;6.13;1.17;;;;;;;;;;4916976;29;20036;-32
2022/03/04 08:44:11;;;;;;;3.72;1.10;;;;;;;;;;4919318;29;20040;-32
2022/03/04 08:46:38;;;;;;;3.50;1.30;;;;;;;;;;4919239;29;20032;-31
2022/03/04 08:49:05;;;;;;;3.10;1.27;;;;;;;;;;4933720;29;20110;-31
2022/03/04 08:51:32;;;;;;;3.50;1.20;;;;;;;;;;4919053;29;20040;-32
2022/03/04 08:53:59;;;;;;;2.67;1.50;;;;;;;;;;4919060;29;20090;-31
2022/03/04 08:56:26;;;;;;;2.88;1.17;;;;;;;;;;4921059;29;20028;-33
2022/03/04 08:58:53;;;;;;;2.13;1.10;;;;;;;;;;4933600;29;20034;-32
2022/03/04 09:01:20;;;;;;;2.30;1.20;;;;;;;;;;4937688;29;20034;-32
2022/03/04 09:03:47;;;;;;;3.38;1.38;;;;;;;;;;4937957;29;20062;-31
2022/03/04 09:06:14;;;;;;;4.28;1.48;;;;;;;;;;4937860;29;20133;-31
2022/03/04 09:08:41;;;;;;;5.22;1.23;;;;;;;;;;4937794;29;20498;-31
2022/03/04 09:11:08;;;;;;;2.25;1.10;;;;;;;;;;4937695;29;20611;-31
2022/03/04 09:13:35;;;;;;;4.05;1.27;;;;;;;;;;4937580;29;20028;-31
2022/03/04 09:16:03;;;;;;;5.13;1.20;;;;;;;;;;4937212;29;20032;-32
2022/03/04 09:18:30;;;;;;;5.97;1.27;;;;;;;;;;4933629;29;20035;-32
2022/03/04 09:20:57;;;;;;;2.45;1.10;;;;;;;;;;4926072;29;20034;-32
2022/03/04 09:23:23;;;;;;;8.38;1.70;;;;;;;;;;4927872;29;20474;-32
2022/03/04 09:25:52;;;;;;;4.28;1.35;;;;;;;;;;4922478;29;20026;-32
2022/03/04 09:28:19;;;;;;;1.52;1.13;;;;;;;;;;4931034;29;20103;-32
2022/03/04 09:30:46;;;;;;;3.50;1.50;;;;;;;;;;4937353;29;20059;-32
2022/03/04 09:33:13;;;;;;;4.65;1.58;;;;;;;;;;4937173;29;20131;-32
2022/03/04 09:35:40;;;;;;;6.85;1.73;;;;;;;;;;4937284;29;20038;-32
2022/03/04 09:38:07;;;;;;;4.68;1.40;;;;;;;;;;4937262;29;20090;-32
2022/03/04 09:40:34;;;;;;;4.13;1.45;;;;;;;;;;4937267;29;20035;-32
2022/03/04 09:43:01;;;;;;;3.90;1.30;;;;;;;;;;4935850;29;20043;-32
2022/03/04 09:45:28;;;;;;;5.32;1.20;;;;;;;;;;4937108;29;20040;-31
2022/03/04 09:47:55;;;;;;;3.65;1.10;;;;;;;;;;4937100;29;20036;-31
2022/03/04 09:50:22;;;;;;;6.00;1.48;;;;;;;;;;4937072;29;20038;-32
2022/03/04 09:52:50;;;;;;;4.63;1.20;;;;;;;;;;4936486;29;20459;-32
2022/03/04 09:55:17;;;;;;;16.77;2.15;;;;;;;;;;4936873;29;20123;-32
2022/03/04 09:57:44;;;;;;;5.00;1.20;;;;;;;;;;4936936;29;20092;-32
2022/03/04 10:00:11;;;;;;;4.60;1.30;;;;;;;;;;4936874;29;20035;-32
2022/03/04 10:02:39;;;;;;;3.22;1.50;;;;;;;;;;4936675;29;20032;-32
2022/03/04 10:05:06;;;;;;;2.58;1.27;;;;;;;;;;4936784;29;20035;-32
2022/03/04 10:07:47;;;;;;;5.70;1.20;;;;;;;;;;4936673;29;20039;-32
2022/03/04 10:10:15;;;;;;;2.63;1.30;;;;;;;;;;4936623;29;20035;-32
2022/03/04 10:12:55;;;;;;;2.33;1.05;;;;;;;;;;4935223;29;20032;-32
2022/03/04 10:15:23;;;;;;;4.90;1.23;;;;;;;;;;4936445;29;20031;-31
2022/03/04 10:18:03;;;;;;;4.88;1.50;;;;;;;;;;4936528;29;20036;-31
2022/03/04 10:20:34;;;;;;;5.55;1.52;;;;;;;;;;4936531;29;20039;-31
2022/03/04 10:23:15;;;;;;;11.05;2.05;;;;;;;;;;4924592;29;20028;-32
2022/03/04 10:25:46;;;;;;;6.45;2.15;;;;;;;;;;4915938;29;20028;-32
2022/03/04 10:28:13;;;;;;;7.68;2.88;;;;;;;;;;4916144;29;20032;-36
2022/03/04 10:30:44;;;;;;;7.70;3.00;;;;;;;;;;4921222;29;20067;-33
2022/03/04 10:33:15;;;;;;;10.13;2.70;;;;;;;;;;4934659;29;20106;-36
2022/03/04 10:35:43;;;;;;;10.50;2.83;;;;;;;;;;4934591;29;20544;-37
2022/03/04 10:38:20;;;;;;;7.45;2.53;;;;;;;;;;4935236;29;20070;-37
2022/03/04 10:40:48;;;;;;;6.45;2.38;;;;;;;;;;4935069;29;20070;-34
2022/03/04 10:43:22;;;;;;;8.30;2.75;;;;;;;;;;4934214;29;20082;-37
2022/03/04 10:46:00;;;;;;;6.72;2.40;;;;;;;;;;4934885;29;20044;-36
2022/03/04 10:48:28;;;;;;;5.57;2.65;;;;;;;;;;4935151;29;20095;-36
2022/03/04 10:50:56;;;;;;;6.25;2.20;;;;;;;;;;4935315;29;20441;-38
2022/03/04 10:53:30;;;;;;;5.78;2.10;;;;;;;;;;4934310;29;20126;-38
2022/03/04 10:55:58;;;;;;;12.57;2.13;;;;;;;;;;4934576;29;20039;-34
2022/03/04 10:58:33;;;;;;;10.75;2.58;;;;;;;;;;4934261;29;20046;-38
2022/03/04 11:01:02;;;;;;;9.93;2.60;;;;;;;;;;4934710;29;20066;-37
2022/03/04 11:03:30;;;;;;;8.63;2.72;;;;;;;;;;4934308;29;20498;-35
2022/03/04 11:05:59;;;;;;;6.32;2.05;;;;;;;;;;4933794;29;20067;-37
2022/03/04 11:08:26;;;;;;;7.78;2.40;;;;;;;;;;4934790;29;20379;-37
2022/03/04 11:10:54;;;;;;;6.40;2.70;;;;;;;;;;4935121;29;20036;-36
2022/03/04 11:13:21;;;;;;;3.75;1.95;;;;;;;;;;4934831;29;20039;-36
2022/03/04 11:15:48;;;;;;;6.25;2.20;;;;;;;;;;4933096;29;20036;-36
2022/03/04 11:18:20;;;;;;;45.55;3.47;;;;;;;;;;4941705;29;20429;-38
2022/03/04 11:20:48;;;;;;;30.90;3.08;;;;;;;;;;4953920;28;20035;-35
2022/03/04 11:23:20;;;;;;;35.22;3.47;;;;;;;;;;4945666;28;20032;-39
2022/03/04 11:25:52;;;;;;;24.23;4.17;;;;;;;;;;4914811;29;20118;-39
2022/03/04 11:28:20;;;;;;;75.75;7.93;;;;;;;;;;4922210;29;20350;-38
2022/03/04 11:30:51;;;;;;;51.33;5.78;;;;;;;;;;4923015;29;20043;-39
2022/03/04 11:33:22;;;;;;;13.10;2.67;;;;;;;;;;4916848;29;20075;-40
2022/03/04 11:36:00;;;;;;;418.88;51.55;;;;;;;;;;4920963;29;20097;-37
2022/03/04 11:38:45;;;;;;;224.48;25.58;;;;;;;;;;4930704;29;20040;-37
2022/03/04 11:41:12;;;;;;;96.85;12.98;;;;;;;;;;4933570;29;20040;-34
2022/03/04 11:43:46;;;;;;;72.53;10.23;;;;;;;;;;4926021;29;20384;-38
2022/03/04 11:46:19;;;;;;;54.97;5.35;;;;;;;;;;4928567;29;20024;-40
2022/03/04 11:48:47;;;;;;;56.85;6.88;;;;;;;;;;4914747;29;20063;-36
2022/03/04 11:51:20;;;;;;;19.65;3.40;;;;;;;;;;4913369;29;20063;-35
2022/03/04 11:54:05;;;;;;;29.35;3.70;;;;;;;;;;4914394;29;20040;-36
2022/03/04 11:56:50;;;;;;;15.48;2.35;;;;;;;;;;4915207;29;20068;-37
2022/03/04 11:59:22;;;;;;;12.95;1.90;;;;;;;;;;4914200;29;20035;-38
2022/03/04 12:01:49;;;;;;;7.10;1.65;;;;;;;;;;4917082;29;20036;-39
2022/03/04 12:04:17;;;;;;;7.85;1.38;;;;;;;;;;4926697;29;20067;-38
2022/03/04 12:06:45;;;;;;;6.22;1.75;;;;;;;;;;4921008;29;20035;-39
2022/03/04 12:09:28;;;;;;;5.38;1.20;;;;;;;;;;4923194;29;20038;-38
2022/03/04 12:12:13;;;;;;;8.02;1.10;;;;;;;;;;4930275;29;20043;-40
2022/03/04 12:14:47;;;;;;;6.05;0.65;;;;;;;;;;4933460;29;20028;-38
2022/03/04 12:17:15;;;;;;;2.42;0.73;;;;;;;;;;4927875;29;20115;-39
2022/03/04 12:19:42;;;;;;;2.78;0.70;;;;;;;;;;4928534;29;20039;-40
2022/03/04 12:22:09;;;;;;;4.93;1.30;;;;;;;;;;4937690;29;20032;-37
2022/03/04 12:24:36;;;;;;;1.02;0.50;;;;;;;;;;4936780;29;20039;-37
2022/03/04 12:27:04;;;;;;;2.15;0.68;;;;;;;;;;4937275;29;20127;-35
2022/03/04 12:29:51;;;;;;;0.80;0.52;;;;;;;;;;4936332;29;20039;-36
2022/03/04 12:32:18;;;;;;;3.00;0.60;;;;;;;;;;4937289;29;20123;-37
2022/03/04 12:34:52;;;;;;;1.90;0.73;;;;;;;;;;4928841;29;20028;-39
2022/03/04 12:37:19;;;;;;;2.92;0.63;;;;;;;;;;4917692;29;20072;-40
2022/03/04 12:39:51;;;;;;;0.40;0.30;;;;;;;;;;4918245;29;20028;-41
2022/03/04 12:42:18;;;;;;;0.65;0.40;;;;;;;;;;4917626;29;20140;-38
2022/03/04 12:44:46;;;;;;;2.58;0.30;;;;;;;;;;4930929;29;20035;-43
2022/03/04 12:47:14;;;;;;;4.55;0.70;;;;;;;;;;4937029;29;20036;-37
2022/03/04 12:49:42;;;;;;;3.03;0.57;;;;;;;;;;4937234;29;20108;-37
2022/03/04 12:52:09;;;;;;;1.42;0.50;;;;;;;;;;4925141;29;20427;-35
2022/03/04 12:54:36;;;;;;;1.15;0.40;;;;;;;;;;4927975;29;20082;-36
2022/03/04 12:57:04;;;;;;;3.15;0.60;;;;;;;;;;4930916;29;20141;-37
2022/03/04 12:59:43;;;;;;;1.90;0.50;;;;;;;;;;4936818;29;20118;-39
2022/03/04 13:02:10;;;;;;;1.45;0.95;;;;;;;;;;4954859;28;20027;-36
2022/03/04 13:04:37;;;;;;;3.80;0.30;;;;;;;;;;4956189;28;20074;-38
2022/03/04 13:07:05;;;;;;;1.65;0.40;;;;;;;;;;4934069;28;20023;-38
2022/03/04 13:09:32;;;;;;;2.58;0.35;;;;;;;;;;4936538;29;20039;-37
2022/03/04 13:12:08;;;;;;;0.35;0.22;;;;;;;;;;4934109;29;20418;-38
2022/03/04 13:14:35;;;;;;;1.38;0.30;;;;;;;;;;4936242;29;20047;-37
2022/03/04 13:17:02;;;;;;;0.77;0.30;;;;;;;;;;4934928;29;20493;-37
2022/03/04 13:19:30;;;;;;;4.03;0.43;;;;;;;;;;4936166;29;20063;-39
2022/03/04 13:22:16;;;;;;;1.02;0.38;;;;;;;;;;4936055;29;20147;-39
2022/03/04 13:24:44;;;;;;;0.38;0.30;;;;;;;;;;4935556;29;20035;-36
2022/03/04 13:27:16;;;;;;;2.63;0.57;;;;;;;;;;4935557;29;20067;-36
2022/03/04 13:29:56;;;;;;;1.95;0.30;;;;;;;;;;4935016;29;20027;-35
2022/03/04 13:32:23;;;;;;;1.67;0.40;;;;;;;;;;4935773;29;20578;-37
2022/03/04 13:34:57;;;;;;;5.72;0.47;;;;;;;;;;4935635;29;20097;-38
2022/03/04 13:37:24;;;;;;;1.10;0.30;;;;;;;;;;4935577;29;20505;-38
2022/03/04 13:39:59;;;;;;;1.83;0.50;;;;;;;;;;4936143;29;20055;-37
2022/03/04 13:42:27;;;;;;;3.05;0.50;;;;;;;;;;4936110;29;20044;-38
2022/03/04 13:44:54;;;;;;;1.20;0.40;;;;;;;;;;4934672;29;20027;-39
2022/03/04 13:47:30;;;;;;;1.33;0.40;;;;;;;;;;4936066;29;20051;-38
2022/03/04 13:49:57;;;;;;;1.00;0.20;;;;;;;;;;4935775;29;20118;-37
2022/03/04 13:52:25;;;;;;;5.47;0.28;;;;;;;;;;4935383;29;20087;-37
2022/03/04 13:54:57;;;;;;;1.02;0.85;;;;;;;;;;4935119;29;20028;-38
2022/03/04 13:57:35;;;;;;;0.80;0.30;;;;;;;;;;4935213;29;20398;-37
2022/03/04 14:00:04;;;;;;;7.38;0.45;;;;;;;;;;4935421;29;20035;-36
2022/03/04 14:02:38;;;;;;;5.28;0.40;;;;;;;;;;4934609;29;20035;-38
2022/03/04 14:05:05;;;;;;;0.63;0.40;;;;;;;;;;4933802;29;20027;-38
2022/03/04 14:07:48;;;;;;;0.68;0.20;;;;;;;;;;4933610;29;20055;-37
2022/03/04 14:10:17;;;;;;;2.97;0.45;;;;;;;;;;4935558;29;20072;-37
2022/03/04 14:12:45;;;;;;;1.75;0.50;;;;;;;;;;4935314;29;20482;-38
2022/03/04 14:15:13;;;;;;;2.60;0.60;;;;;;;;;;4935582;29;20035;-39
2022/03/04 14:17:47;;;;;;;2.45;0.50;;;;;;;;;;4933207;29;20046;-38
2022/03/04 14:20:14;;;;;;;2.65;0.32;;;;;;;;;;4935477;29;20039;-39
2022/03/04 14:22:41;;;;;;;0.63;0.30;;;;;;;;;;4935189;29;20554;-38
2022/03/04 14:25:08;;;;;;;2.13;0.45;;;;;;;;;;4935195;29;20047;-39
2022/03/04 14:27:35;;;;;;;6.15;0.38;;;;;;;;;;4934195;29;20106;-38
2022/03/04 14:30:02;;;;;;;3.08;0.63;;;;;;;;;;4933322;28;20066;-38
2022/03/04 14:32:29;;;;;;;3.88;0.60;;;;;;;;;;4933664;29;20674;-35
2022/03/04 14:34:56;;;;;;;6.60;0.85;;;;;;;;;;4934771;29;20028;-35
2022/03/04 14:37:23;;;;;;;0.95;0.40;;;;;;;;;;4933233;29;20047;-37
2022/03/04 14:39:50;;;;;;;2.72;0.55;;;;;;;;;;4932855;29;20099;-35
2022/03/04 14:42:17;;;;;;;0.88;0.38;;;;;;;;;;4933010;29;20032;-38
2022/03/04 14:44:44;;;;;;;11.95;0.60;;;;;;;;;;4933498;29;20035;-36
2022/03/04 14:47:11;;;;;;;1.70;0.40;;;;;;;;;;4934302;29;20110;-36